Time;durP1;ratioP1;P1;durP2;ratioP2;P2;SDS_P1;SDS_P2;PMS_P1;PMS_P2;Temp;Humidity;BMP_temperature;BMP_pressure;BME280_temperature;BME280_humidity;BME280_pressure;Samples;Min_cycle;Max_cycle;Signal;HPM_P1;HPM_P2
2022/07/17 00:01:27;;;;;;;8.00;3.25;;;;;;;14.66;66.99;102652.44;5016786;28;20029;-77
2022/07/17 00:03:52;;;;;;;8.88;3.22;;;;;;;14.59;66.92;102658.09;5021263;28;20071;-77
2022/07/17 00:06:18;;;;;;;7.65;3.13;;;;;;;14.49;66.82;102653.59;5021732;28;20022;-77
2022/07/17 00:08:43;;;;;;;7.93;3.38;;;;;;;14.47;67.44;102647.66;5028084;28;20117;-77
2022/07/17 00:11:09;;;;;;;9.65;3.63;;;;;;;14.40;67.61;102654.22;5016836;28;20018;-76
2022/07/17 00:13:34;;;;;;;7.45;3.70;;;;;;;14.39;67.76;102652.53;5024948;28;20401;-79
2022/07/17 00:15:59;;;;;;;11.23;3.83;;;;;;;14.35;67.71;102654.53;5018003;28;20029;-77
2022/07/17 00:18:25;;;;;;;8.13;3.83;;;;;;;14.31;68.02;102648.69;5025683;28;20026;-76
2022/07/17 00:20:50;;;;;;;9.27;3.70;;;;;;;14.21;68.49;102642.41;5024613;28;20420;-77
2022/07/17 00:23:15;;;;;;;8.80;3.67;;;;;;;14.26;67.92;102649.94;5020745;28;20103;-77
2022/07/17 00:25:41;;;;;;;7.63;3.70;;;;;;;14.18;68.34;102642.63;5027429;28;20026;-79
2022/07/17 00:28:06;;;;;;;7.63;3.85;;;;;;;14.10;68.52;102634.47;5023343;28;20679;-77
2022/07/17 00:30:32;;;;;;;9.73;3.75;;;;;;;14.05;69.37;102637.41;5017222;28;20492;-78
2022/07/17 00:32:57;;;;;;;8.55;3.80;;;;;;;14.09;68.81;102648.47;5018876;28;20067;-77
2022/07/17 00:35:24;;;;;;;7.78;4.07;;;;;;;14.06;69.04;102649.50;5022089;28;20251;-77
2022/07/17 00:37:49;;;;;;;9.23;4.10;;;;;;;13.96;69.22;102642.41;5027273;28;20037;-77
2022/07/17 00:40:24;;;;;;;7.78;3.85;;;;;;;13.97;69.32;102660.56;5027202;28;20029;-77
2022/07/17 00:42:50;;;;;;;8.65;3.88;;;;;;;13.97;69.13;102654.50;5027153;28;20100;-76
2022/07/17 00:45:16;;;;;;;11.20;3.65;;;;;;;13.92;69.05;102656.56;5025848;28;20064;-78
2022/07/17 00:47:53;;;;;;;8.35;3.58;;;;;;;13.95;69.61;102662.44;5026034;28;20064;-77
2022/07/17 00:50:20;;;;;;;7.43;3.45;;;;;;;13.79;69.33;102636.53;5026691;28;20100;-77
2022/07/17 00:52:46;;;;;;;8.07;3.60;;;;;;;13.91;69.42;102647.09;5018716;28;20029;-76
2022/07/17 00:55:13;;;;;;;7.65;3.67;;;;;;;13.90;69.34;102650.63;5025973;28;20782;-77
2022/07/17 00:57:40;;;;;;;8.35;3.05;;;;;;;13.90;69.67;102650.63;5027917;28;20025;-77
2022/07/17 01:00:09;;;;;;;9.50;3.42;;;;;;;13.86;70.02;102641.34;5009604;28;20469;-76
2022/07/17 01:02:35;;;;;;;6.75;3.25;;;;;;;13.74;69.70;102625.56;5027327;28;20056;-77
2022/07/17 01:05:01;;;;;;;8.43;3.25;;;;;;;13.64;70.16;102616.66;5024830;28;20091;-77
2022/07/17 01:07:26;;;;;;;8.77;3.15;;;;;;;13.77;70.26;102643.63;5015861;28;20028;-77
2022/07/17 01:09:51;;;;;;;7.68;3.13;;;;;;;13.80;70.30;102637.38;5021153;28;20030;-77
2022/07/17 01:12:17;;;;;;;7.82;3.10;;;;;;;13.61;70.40;102629.09;5033272;28;20042;-78
2022/07/17 01:14:43;;;;;;;8.35;2.90;;;;;;;13.63;70.67;102625.44;5010441;28;20022;-76
2022/07/17 01:17:10;;;;;;;8.95;3.03;;;;;;;13.67;70.12;102647.78;5009902;28;20021;-77
2022/07/17 01:19:35;;;;;;;7.95;2.95;;;;;;;13.69;69.89;102645.88;5025659;28;20040;-76
2022/07/17 01:22:00;;;;;;;7.50;2.88;;;;;;;13.56;70.15;102639.81;5017857;28;20013;-79
2022/07/17 01:24:26;;;;;;;9.82;2.78;;;;;;;13.52;70.40;102638.34;5020739;28;20393;-77
2022/07/17 01:26:51;;;;;;;6.80;2.65;;;;;;;13.54;70.00;102631.28;5016797;28;20763;-77
2022/07/17 01:29:17;;;;;;;7.40;2.88;;;;;;;13.51;70.55;102636.66;5018761;28;20454;-77
2022/07/17 01:31:43;;;;;;;9.02;2.97;;;;;;;13.55;70.72;102643.38;5014352;28;20026;-76
2022/07/17 01:34:12;;;;;;;8.60;2.90;;;;;;;13.48;70.87;102644.72;5017087;28;20113;-77
2022/07/17 01:36:38;;;;;;;7.15;2.60;;;;;;;13.48;71.16;102647.31;5026021;28;20033;-77
2022/07/17 01:39:04;;;;;;;7.35;2.65;;;;;;;13.53;71.04;102650.44;5025902;28;20229;-77
2022/07/17 01:41:30;;;;;;;7.95;2.50;;;;;;;13.41;71.70;102646.00;5025728;28;20424;-77
2022/07/17 01:43:56;;;;;;;7.28;2.58;;;;;;;13.51;71.35;102641.88;5022727;28;20032;-76
2022/07/17 01:46:21;;;;;;;6.85;2.78;;;;;;;13.46;71.37;102638.75;5025185;28;20057;-77
2022/07/17 01:48:47;;;;;;;12.60;2.53;;;;;;;13.35;71.80;102642.03;5023932;28;20022;-77
2022/07/17 01:51:12;;;;;;;8.43;2.30;;;;;;;13.23;71.64;102632.41;5026073;28;20483;-77
2022/07/17 01:53:38;;;;;;;12.32;2.88;;;;;;;13.23;71.50;102628.03;5025204;28;20079;-77
2022/07/17 01:56:03;;;;;;;8.00;2.42;;;;;;;13.34;71.38;102639.53;5024063;28;20171;-77
2022/07/17 01:58:29;;;;;;;7.95;2.30;;;;;;;13.35;71.62;102641.19;5023654;28;20477;-77
2022/07/17 02:00:55;;;;;;;7.63;2.40;;;;;;;13.34;71.33;102639.53;5017802;28;20239;-77
2022/07/17 02:03:20;;;;;;;6.57;2.40;;;;;;;13.21;71.51;102618.66;5012755;28;20037;-77
2022/07/17 02:05:46;;;;;;;7.45;2.20;;;;;;;13.41;71.20;102632.97;5026268;28;20051;-78
2022/07/17 02:08:11;;;;;;;7.03;2.53;;;;;;;13.18;71.54;102630.03;5017294;28;20025;-77
2022/07/17 02:10:37;;;;;;;7.38;2.60;;;;;;;13.29;71.19;102638.06;5023584;28;20028;-78
2022/07/17 02:13:03;;;;;;;6.88;2.80;;;;;;;13.22;71.62;102626.34;5021548;28;20061;-77
2022/07/17 02:15:28;;;;;;;7.30;2.90;;;;;;;13.21;71.53;102619.47;5025187;28;20477;-77
2022/07/17 02:17:54;;;;;;;7.10;2.90;;;;;;;13.32;71.21;102621.41;5019714;28;20038;-78
2022/07/17 02:20:20;;;;;;;8.50;2.80;;;;;;;13.17;72.01;102620.56;5022529;28;20436;-78
2022/07/17 02:22:46;;;;;;;6.53;2.75;;;;;;;13.12;72.03;102625.22;5024312;28;20032;-77
2022/07/17 02:25:12;;;;;;;8.13;2.97;;;;;;;13.10;71.85;102637.53;5024061;28;20021;-78
2022/07/17 02:27:39;;;;;;;7.00;2.65;;;;;;;13.20;71.74;102632.59;5011144;28;20063;-78
2022/07/17 02:30:10;;;;;;;8.30;3.08;;;;;;;13.03;72.87;102631.03;5022196;28;20072;-77
2022/07/17 02:32:35;;;;;;;8.43;2.42;;;;;;;13.01;72.88;102633.72;5014125;28;20026;-77
2022/07/17 02:35:01;;;;;;;8.07;2.80;;;;;;;13.06;72.32;102633.44;5024725;28;20029;-76
2022/07/17 02:37:26;;;;;;;8.38;2.90;;;;;;;13.08;72.30;102629.00;5022847;28;20033;-77
2022/07/17 02:39:54;;;;;;;8.02;2.70;;;;;;;13.02;72.65;102624.16;5023591;28;20378;-77
2022/07/17 02:42:20;;;;;;;6.50;2.70;;;;;;;12.99;72.33;102621.75;5022384;28;20676;-77
2022/07/17 02:44:45;;;;;;;6.30;2.67;;;;;;;12.90;72.55;102615.38;5025045;28;20029;-76
2022/07/17 02:47:11;;;;;;;7.22;2.58;;;;;;;12.88;72.53;102626.78;5023937;28;20094;-76
2022/07/17 02:49:36;;;;;;;5.93;2.50;;;;;;;12.89;73.02;102629.28;5021173;28;20026;-77
2022/07/17 02:52:02;;;;;;;10.52;2.90;;;;;;;12.94;72.95;102629.84;5026997;28;20028;-76
2022/07/17 02:54:27;;;;;;;6.75;3.05;;;;;;;12.82;73.61;102624.56;5021833;28;20034;-77
2022/07/17 02:56:53;;;;;;;9.70;2.88;;;;;;;12.76;72.83;102624.00;5021785;28;20469;-78
2022/07/17 02:59:18;;;;;;;7.20;3.28;;;;;;;12.63;74.01;102638.72;5025702;28;20481;-79
2022/07/17 03:01:44;;;;;;;10.45;2.88;;;;;;;12.74;73.66;102641.50;5027043;28;20112;-77
2022/07/17 03:04:09;;;;;;;10.68;3.08;;;;;;;12.77;73.28;102646.50;5020211;28;20045;-77
2022/07/17 03:06:34;;;;;;;10.00;3.30;;;;;;;12.70;73.59;102647.81;5020270;28;20041;-76
2022/07/17 03:09:00;;;;;;;7.60;3.28;;;;;;;12.63;73.91;102637.91;5015639;28;20467;-77
2022/07/17 03:11:25;;;;;;;13.10;3.30;;;;;;;12.57;74.08;102623.50;5010565;28;20172;-77
2022/07/17 03:13:51;;;;;;;9.63;3.03;;;;;;;12.66;73.92;102633.31;5016898;28;20042;-77
2022/07/17 03:16:16;;;;;;;8.90;3.15;;;;;;;12.60;74.42;102643.28;5019207;28;20025;-77
2022/07/17 03:18:41;;;;;;;9.20;3.05;;;;;;;12.63;74.38;102654.34;5019669;28;20029;-77
2022/07/17 03:21:07;;;;;;;12.02;3.45;;;;;;;12.72;74.23;102639.91;5023639;28;20022;-76
2022/07/17 03:23:33;;;;;;;11.68;3.08;;;;;;;12.62;73.43;102637.06;5019293;28;20493;-77
2022/07/17 03:25:58;;;;;;;10.15;3.35;;;;;;;12.56;74.55;102642.66;5012582;28;20055;-77
2022/07/17 03:28:24;;;;;;;8.02;2.80;;;;;;;12.51;74.20;102638.66;5026947;28;20504;-79
2022/07/17 03:30:49;;;;;;;8.73;3.15;;;;;;;12.39;74.42;102624.63;5025823;28;20017;-78
2022/07/17 03:33:15;;;;;;;9.73;3.38;;;;;;;12.61;73.83;102635.38;5021693;28;20076;-77
2022/07/17 03:35:40;;;;;;;7.68;2.67;;;;;;;12.58;73.94;102629.53;5025855;28;20425;-77
2022/07/17 03:38:05;;;;;;;7.07;2.80;;;;;;;12.51;73.85;102629.06;5026180;28;20017;-77
2022/07/17 03:40:31;;;;;;;7.85;3.30;;;;;;;12.52;74.01;102635.13;5021092;28;20030;-79
2022/07/17 03:42:56;;;;;;;6.88;2.70;;;;;;;12.50;74.52;102627.38;5024554;28;20024;-76
2022/07/17 03:45:22;;;;;;;11.98;3.17;;;;;;;12.51;73.60;102631.66;5024271;28;20017;-77
2022/07/17 03:47:47;;;;;;;9.55;3.20;;;;;;;12.50;74.56;102622.16;5022108;28;20091;-78
2022/07/17 03:50:13;;;;;;;6.97;2.92;;;;;;;12.50;74.32;102640.38;5024586;28;20462;-78
2022/07/17 03:52:38;;;;;;;6.53;2.85;;;;;;;12.45;74.40;102645.06;5023807;28;20061;-77
2022/07/17 03:55:04;;;;;;;7.97;3.25;;;;;;;12.39;74.65;102641.06;5025947;28;20036;-78
2022/07/17 03:57:29;;;;;;;9.02;3.10;;;;;;;12.45;74.00;102655.47;5023218;28;20461;-78
2022/07/17 03:59:54;;;;;;;6.70;3.03;;;;;;;12.38;74.34;102664.56;5025342;28;20052;-77
2022/07/17 04:02:20;;;;;;;6.00;3.20;;;;;;;12.35;75.17;102680.38;5024271;28;20025;-77
2022/07/17 04:04:45;;;;;;;8.13;3.05;;;;;;;12.41;74.97;102669.59;5026635;28;20217;-77
2022/07/17 04:07:26;;;;;;;9.38;2.88;;;;;;;12.37;75.29;102657.69;5026893;28;20029;-77
2022/07/17 04:09:53;;;;;;;7.15;2.85;;;;;;;12.48;74.87;102650.91;5024082;28;20025;-76
2022/07/17 04:12:18;;;;;;;10.57;3.50;;;;;;;12.33;75.05;102650.97;5023643;28;20045;-78
2022/07/17 04:14:44;;;;;;;9.18;3.50;;;;;;;12.38;75.28;102638.53;5017481;28;20690;-77
2022/07/17 04:17:09;;;;;;;7.03;3.22;;;;;;;12.42;74.88;102645.22;5025632;28;20100;-78
2022/07/17 04:19:34;;;;;;;11.02;3.47;;;;;;;12.50;75.57;102648.19;5016385;28;20385;-76
2022/07/17 04:22:00;;;;;;;7.70;3.53;;;;;;;12.56;75.29;102652.19;5016101;28;20358;-79
2022/07/17 04:24:25;;;;;;;7.60;3.72;;;;;;;12.56;76.00;102655.66;5013633;28;20377;-79
2022/07/17 04:26:50;;;;;;;8.73;3.63;;;;;;;12.56;75.55;102663.47;5021261;28;20049;-78
2022/07/17 04:29:16;;;;;;;8.50;3.50;;;;;;;12.46;76.63;102667.56;5015961;28;20025;-77
2022/07/17 04:31:41;;;;;;;7.00;3.60;;;;;;;12.51;76.24;102681.13;5024422;28;20033;-77
2022/07/17 04:34:06;;;;;;;7.55;3.25;;;;;;;12.43;76.07;102668.56;5026543;28;20076;-80
2022/07/17 04:36:32;;;;;;;7.95;3.30;;;;;;;12.47;75.92;102669.22;5016404;28;20025;-77
2022/07/17 04:38:57;;;;;;;7.95;3.30;;;;;;;12.53;75.83;102661.03;5013057;28;20022;-76
2022/07/17 04:41:22;;;;;;;7.38;3.13;;;;;;;12.57;75.63;102664.31;5014219;28;20029;-78
2022/07/17 04:43:48;;;;;;;10.07;3.22;;;;;;;12.60;75.69;102675.34;5023551;28;20112;-77
2022/07/17 04:46:13;;;;;;;7.35;3.17;;;;;;;12.65;75.75;102675.91;5021266;28;20380;-78
2022/07/17 04:48:38;;;;;;;6.38;2.97;;;;;;;12.64;75.99;102661.22;5026971;28;20104;-76
2022/07/17 04:51:04;;;;;;;7.25;3.10;;;;;;;12.69;75.61;102669.59;5022876;28;20470;-76
2022/07/17 04:53:30;;;;;;;7.65;3.30;;;;;;;12.65;76.16;102665.50;5023401;28;20039;-77
2022/07/17 04:55:56;;;;;;;6.15;2.97;;;;;;;12.57;75.90;102659.94;5020541;28;20382;-77
2022/07/17 04:58:21;;;;;;;9.23;3.00;;;;;;;12.79;75.44;102669.00;5012078;28;20034;-77
2022/07/17 05:00:47;;;;;;;8.63;3.30;;;;;;;12.78;75.63;102673.38;5024259;28;20025;-77
2022/07/17 05:03:13;;;;;;;6.97;2.80;;;;;;;12.76;75.45;102665.69;5025476;28;20040;-77
2022/07/17 05:05:40;;;;;;;8.13;3.05;;;;;;;12.85;75.73;102674.69;5015358;28;20112;-78
2022/07/17 05:08:05;;;;;;;7.03;2.80;;;;;;;12.83;75.36;102673.09;5008893;28;20030;-77
2022/07/17 05:10:31;;;;;;;6.72;3.35;;;;;;;12.69;75.02;102651.38;5020573;28;20484;-77
2022/07/17 05:12:56;;;;;;;6.28;2.90;;;;;;;12.81;75.05;102661.97;5026699;28;20128;-77
2022/07/17 05:15:22;;;;;;;9.50;3.83;;;;;;;12.87;74.61;102669.38;5020455;28;20025;-77
2022/07/17 05:17:47;;;;;;;9.43;3.78;;;;;;;12.87;74.75;102661.56;5025690;28;20044;-77
2022/07/17 05:20:12;;;;;;;6.95;3.50;;;;;;;12.92;74.31;102662.97;5026945;28;20029;-77
2022/07/17 05:22:38;;;;;;;10.60;4.00;;;;;;;13.01;74.27;102658.94;5022837;28;20140;-77
2022/07/17 05:25:04;;;;;;;10.98;3.92;;;;;;;13.03;74.31;102657.94;5023646;28;20021;-78
2022/07/17 05:27:30;;;;;;;9.35;3.65;;;;;;;13.14;74.32;102659.84;5016233;28;20453;-76
2022/07/17 05:29:55;;;;;;;6.47;3.70;;;;;;;13.07;74.35;102663.75;5015674;28;20029;-77
2022/07/17 05:32:21;;;;;;;8.95;3.70;;;;;;;13.10;74.28;102653.16;5025241;28;20029;-80
2022/07/17 05:34:46;;;;;;;8.75;3.60;;;;;;;13.17;74.07;102646.63;5026350;28;20384;-77
2022/07/17 05:37:12;;;;;;;7.88;3.60;;;;;;;13.18;74.23;102671.75;5025036;28;20025;-76
2022/07/17 05:39:39;;;;;;;11.35;3.88;;;;;;;13.34;73.31;102670.81;5040491;28;20479;-76
2022/07/17 05:42:05;;;;;;;8.15;3.78;;;;;;;13.22;72.82;102662.00;5021872;28;20033;-77
2022/07/17 05:44:30;;;;;;;8.70;3.97;;;;;;;13.41;73.62;102677.28;5019201;28;20029;-78
2022/07/17 05:46:55;;;;;;;9.07;4.30;;;;;;;13.27;72.79;102666.00;5026103;28;20021;-77
2022/07/17 05:49:21;;;;;;;9.93;4.30;;;;;;;13.44;73.40;102666.69;5027232;28;20107;-77
2022/07/17 05:51:46;;;;;;;7.82;3.85;;;;;;;13.60;72.66;102667.38;5022620;28;20121;-77
2022/07/17 05:54:11;;;;;;;8.00;4.05;;;;;;;13.56;73.18;102665.88;5018857;28;20481;-76
2022/07/17 05:56:37;;;;;;;12.43;4.20;;;;;;;13.58;72.75;102656.19;5026085;28;20504;-76
2022/07/17 05:59:02;;;;;;;10.68;4.60;;;;;;;13.70;73.04;102667.59;5026421;28;20022;-77
2022/07/17 06:01:27;;;;;;;8.77;4.32;;;;;;;13.72;73.06;102666.56;5022128;28;20513;-77
2022/07/17 06:03:53;;;;;;;8.13;3.75;;;;;;;13.81;72.84;102654.69;5024895;28;20025;-79
2022/07/17 06:06:18;;;;;;;9.00;3.80;;;;;;;13.93;71.96;102668.69;5022210;28;20312;-78
2022/07/17 06:08:43;;;;;;;8.38;3.47;;;;;;;14.04;71.39;102651.38;5020574;28;20021;-78
2022/07/17 06:11:09;;;;;;;8.57;3.55;;;;;;;14.01;70.79;102650.75;5022068;28;20045;-78
2022/07/17 06:13:34;;;;;;;10.52;3.28;;;;;;;14.03;71.17;102654.91;5023281;28;20132;-77
2022/07/17 06:16:00;;;;;;;7.20;3.42;;;;;;;14.06;70.80;102659.13;5024553;28;20029;-77
2022/07/17 06:18:26;;;;;;;6.70;3.47;;;;;;;14.08;70.57;102654.63;5024502;28;20029;-78
2022/07/17 06:20:52;;;;;;;8.65;3.50;;;;;;;14.28;70.65;102674.16;5012824;28;20037;-77
2022/07/17 06:23:17;;;;;;;7.30;3.35;;;;;;;14.33;70.35;102672.06;5023994;28;20317;-79
2022/07/17 06:25:42;;;;;;;7.53;3.40;;;;;;;14.26;69.90;102661.19;5029207;28;20041;-78
2022/07/17 06:28:08;;;;;;;9.70;3.83;;;;;;;14.41;70.06;102661.09;5029237;28;20037;-78
2022/07/17 06:30:33;;;;;;;5.75;3.17;;;;;;;14.48;69.62;102670.22;5022352;28;20424;-80
2022/07/17 06:32:58;;;;;;;10.05;4.22;;;;;;;14.56;69.42;102673.94;5029663;28;20592;-78
2022/07/17 06:35:24;;;;;;;8.57;3.28;;;;;;;14.66;69.58;102666.31;5023774;28;20601;-77
2022/07/17 06:37:49;;;;;;;8.82;3.05;;;;;;;14.58;68.49;102666.03;5029601;28;20037;-79
2022/07/17 06:40:14;;;;;;;7.97;3.28;;;;;;;14.84;68.16;102683.31;5023850;28;20025;-78
2022/07/17 06:42:40;;;;;;;7.07;2.95;;;;;;;14.87;68.91;102680.50;5029788;28;20025;-78
2022/07/17 06:45:06;;;;;;;6.30;3.13;;;;;;;14.98;68.03;102699.81;5021108;28;20389;-78
2022/07/17 06:47:31;;;;;;;7.50;2.88;;;;;;;15.13;68.50;102688.25;5023331;28;20076;-78
2022/07/17 06:49:56;;;;;;;8.77;3.42;;;;;;;15.24;68.63;102701.41;5024484;28;20025;-78
2022/07/17 06:52:22;;;;;;;7.10;3.38;;;;;;;15.26;67.43;102688.25;5022491;28;20029;-78
2022/07/17 06:54:47;;;;;;;8.35;3.38;;;;;;;15.38;67.41;102692.59;5018947;28;20126;-78
2022/07/17 06:57:12;;;;;;;7.50;2.95;;;;;;;15.53;66.90;102695.84;5025921;28;20033;-77
2022/07/17 06:59:38;;;;;;;9.07;2.80;;;;;;;15.59;65.97;102711.94;5026787;28;20477;-80
2022/07/17 07:02:03;;;;;;;7.47;2.72;;;;;;;15.59;64.22;102711.09;5032594;28;20553;-78
2022/07/17 07:04:28;;;;;;;8.65;2.67;;;;;;;15.66;65.15;102701.91;5017354;28;20033;-77
2022/07/17 07:06:54;;;;;;;8.40;2.90;;;;;;;15.81;64.49;102700.75;5019801;28;20025;-78
2022/07/17 07:09:19;;;;;;;9.40;3.10;;;;;;;15.85;64.04;102696.97;5019739;28;20493;-78
2022/07/17 07:11:45;;;;;;;8.63;3.03;;;;;;;15.94;64.24;102695.44;5022458;28;20040;-77
2022/07/17 07:14:11;;;;;;;7.03;2.72;;;;;;;16.06;63.87;102693.72;5018380;28;20042;-78
2022/07/17 07:16:37;;;;;;;7.70;3.10;;;;;;;16.24;63.74;102702.81;5021765;28;20034;-78
2022/07/17 07:19:03;;;;;;;9.35;2.80;;;;;;;16.25;63.95;102720.19;5035679;28;20082;-77
2022/07/17 07:21:28;;;;;;;7.75;2.83;;;;;;;16.17;63.10;102712.03;5023768;28;20119;-77
2022/07/17 07:23:54;;;;;;;9.07;2.70;;;;;;;16.20;62.63;102703.97;5016101;28;20101;-76
2022/07/17 07:26:19;;;;;;;9.10;2.72;;;;;;;16.33;63.63;102717.78;5024301;28;20037;-77
2022/07/17 07:28:45;;;;;;;6.63;2.38;;;;;;;16.48;63.61;102720.22;5026649;28;20033;-77
2022/07/17 07:31:10;;;;;;;6.80;2.70;;;;;;;16.55;62.42;102710.94;5026258;28;20453;-77
2022/07/17 07:33:36;;;;;;;8.38;2.70;;;;;;;16.59;62.11;102722.84;5021065;28;20160;-78
2022/07/17 07:36:02;;;;;;;8.13;2.60;;;;;;;16.67;61.88;102730.94;5023757;28;20048;-77
2022/07/17 07:38:28;;;;;;;7.95;2.60;;;;;;;16.62;60.10;102727.84;5027770;28;20450;-77
2022/07/17 07:40:53;;;;;;;6.65;2.60;;;;;;;16.69;60.57;102721.19;5027535;28;20033;-77
2022/07/17 07:43:19;;;;;;;9.35;2.42;;;;;;;16.83;60.90;102726.22;5025959;28;20469;-78
2022/07/17 07:45:44;;;;;;;7.63;2.50;;;;;;;16.97;61.27;102723.34;5025583;28;20055;-78
2022/07/17 07:48:09;;;;;;;6.20;2.60;;;;;;;16.95;60.44;102713.94;5018767;28;20022;-77
2022/07/17 07:50:35;;;;;;;8.05;2.63;;;;;;;17.03;60.48;102716.78;5027397;28;20056;-78
2022/07/17 07:53:00;;;;;;;8.38;2.50;;;;;;;17.27;60.07;102724.50;5023841;28;20481;-78
2022/07/17 07:55:26;;;;;;;6.50;2.78;;;;;;;17.35;60.87;102722.09;5027123;28;20095;-77
2022/07/17 07:58:06;;;;;;;9.50;3.00;;;;;;;17.27;59.39;102716.63;5026224;28;20065;-78
2022/07/17 08:00:31;;;;;;;8.48;2.92;;;;;;;17.33;59.56;102723.19;5020869;28;20033;-78
2022/07/17 08:02:57;;;;;;;7.57;2.63;;;;;;;17.42;59.43;102711.94;5026777;28;20014;-78
2022/07/17 08:05:22;;;;;;;7.45;2.60;;;;;;;17.51;59.29;102727.75;5026800;28;20028;-78
2022/07/17 08:07:47;;;;;;;8.07;2.85;;;;;;;17.56;57.99;102719.53;5024130;28;20029;-79
2022/07/17 08:10:13;;;;;;;7.65;2.85;;;;;;;17.77;57.49;102716.94;5024601;28;20337;-78
2022/07/17 08:12:38;;;;;;;6.45;2.78;;;;;;;17.85;57.25;102725.06;5019653;28;20107;-78
2022/07/17 08:15:05;;;;;;;6.68;2.53;;;;;;;17.88;56.95;102730.03;5023458;28;20021;-78
2022/07/17 08:17:30;;;;;;;9.07;3.15;;;;;;;17.80;56.81;102721.97;5027538;28;20032;-78
2022/07/17 08:19:56;;;;;;;7.93;2.70;;;;;;;17.82;55.67;102714.78;5027780;28;20021;-78
2022/07/17 08:22:21;;;;;;;7.78;2.60;;;;;;;18.14;57.28;102729.69;5025215;28;20524;-78
2022/07/17 08:24:46;;;;;;;8.57;2.80;;;;;;;18.01;55.66;102735.97;5026624;28;20072;-76
2022/07/17 08:27:12;;;;;;;10.45;3.10;;;;;;;18.01;56.20;102725.44;5026353;28;20047;-77
2022/07/17 08:29:37;;;;;;;9.07;2.60;;;;;;;18.08;55.90;102720.53;5025950;28;20060;-81
2022/07/17 08:32:02;;;;;;;9.07;2.40;;;;;;;18.25;56.04;102729.63;5025929;28;20025;-78
2022/07/17 08:34:28;;;;;;;6.22;2.20;;;;;;;18.39;56.44;102729.25;5022723;28;20028;-77
2022/07/17 08:36:53;;;;;;;9.32;2.75;;;;;;;18.36;54.97;102724.28;5027146;28;20536;-81
2022/07/17 08:39:18;;;;;;;8.23;2.90;;;;;;;18.41;55.12;102722.09;5025369;28;20053;-78
2022/07/17 08:41:44;;;;;;;10.20;3.25;;;;;;;18.46;55.10;102722.53;5023337;28;20057;-77
2022/07/17 08:44:09;;;;;;;7.88;2.28;;;;;;;18.58;54.25;102713.63;5021209;28;20307;-78
2022/07/17 08:46:36;;;;;;;6.13;2.15;;;;;;;18.56;52.90;102736.53;5014942;28;20033;-77
2022/07/17 08:49:03;;;;;;;6.68;2.00;;;;;;;18.77;54.25;102735.72;5027290;28;20167;-77
2022/07/17 08:51:29;;;;;;;7.10;2.10;;;;;;;18.68;53.09;102734.69;5015631;28;20040;-79
2022/07/17 08:53:55;;;;;;;5.47;1.98;;;;;;;18.69;52.94;102715.31;5027404;28;20041;-78
2022/07/17 08:56:21;;;;;;;5.95;1.70;;;;;;;18.99;54.93;102722.38;5022386;28;20029;-78
2022/07/17 08:58:46;;;;;;;7.45;2.35;;;;;;;18.84;52.94;102728.97;5024182;28;20070;-77
2022/07/17 09:01:14;;;;;;;7.18;1.80;;;;;;;18.97;52.95;102724.28;5016580;28;20025;-77
2022/07/17 09:03:41;;;;;;;5.68;1.83;;;;;;;18.91;53.10;102709.03;5019896;28;20103;-78
2022/07/17 09:06:17;;;;;;;6.20;1.60;;;;;;;19.12;53.18;102721.28;5019955;28;20096;-77
2022/07/17 09:08:43;;;;;;;5.70;1.77;;;;;;;19.10;52.09;102719.63;5026883;28;20021;-78
2022/07/17 09:11:08;;;;;;;7.40;2.00;;;;;;;19.36;54.95;102708.59;5021872;28;20017;-80
2022/07/17 09:13:33;;;;;;;6.80;2.05;;;;;;;19.44;51.50;102714.03;5024390;28;20076;-78
2022/07/17 09:16:11;;;;;;;6.70;2.03;;;;;;;19.43;51.35;102714.97;5023671;28;20112;-77
2022/07/17 09:18:51;;;;;;;6.72;1.90;;;;;;;19.65;52.26;102707.81;5016045;28;20028;-79
2022/07/17 09:21:22;;;;;;;6.85;1.70;;;;;;;19.70;53.25;102695.06;5020426;28;20056;-77
2022/07/17 09:24:06;;;;;;;5.70;1.52;;;;;;;19.96;52.87;102711.97;5014343;28;20033;-77
2022/07/17 09:26:33;;;;;;;5.72;1.70;;;;;;;19.95;50.06;102699.75;5019756;28;20021;-77
2022/07/17 09:29:03;;;;;;;5.03;1.95;;;;;;;19.94;47.73;102705.16;5019201;28;20037;-77
2022/07/17 09:31:30;;;;;;;5.03;1.80;;;;;;;20.10;48.77;102708.88;5025013;28;20025;-77
2022/07/17 09:33:56;;;;;;;5.82;1.63;;;;;;;20.28;48.99;102710.78;5025896;28;20088;-77
2022/07/17 09:36:22;;;;;;;5.10;1.35;;;;;;;20.31;50.20;102713.97;5024997;28;20428;-77
2022/07/17 09:38:51;;;;;;;4.65;1.80;;;;;;;20.31;49.75;102716.59;5024535;28;20109;-77
2022/07/17 09:41:20;;;;;;;8.70;1.98;;;;;;;20.40;52.28;102713.09;5025036;28;20026;-78
2022/07/17 09:43:58;;;;;;;7.72;1.80;;;;;;;20.34;50.10;102705.75;5024601;28;20025;-78
2022/07/17 09:46:24;;;;;;;;;;;;;;;20.67;51.58;102711.50;5025299;28;20040;-77
2022/07/17 09:48:58;;;;;;;4.95;1.50;;;;;;;20.73;49.53;102710.09;5021326;28;19914;-77
2022/07/17 09:51:27;;;;;;;6.32;1.77;;;;;;;20.50;48.04;102699.91;5012608;28;20026;-78
2022/07/17 09:53:56;;;;;;;4.40;1.60;;;;;;;20.93;49.12;102711.63;5019683;28;20059;-76
2022/07/17 09:56:23;;;;;;;6.60;1.75;;;;;;;20.75;46.54;102714.22;5022686;28;20048;-77
2022/07/17 09:58:52;;;;;;;6.55;1.70;;;;;;;20.73;46.28;102710.09;5023704;28;20472;-78
2022/07/17 10:01:17;;;;;;;;;;;;;;;21.11;48.64;102709.06;5025900;28;20041;-78
2022/07/17 10:03:44;;;;;;;5.90;1.90;;;;;;;20.97;46.44;102710.38;5023175;28;20381;-77
2022/07/17 10:06:11;;;;;;;6.55;1.88;;;;;;;20.99;46.05;102716.34;5025711;28;20076;-77
2022/07/17 10:08:38;;;;;;;5.25;1.55;;;;;;;21.19;49.02;102712.59;5015987;28;20017;-77
2022/07/17 10:11:08;;;;;;;5.37;1.80;;;;;;;21.18;45.59;102720.66;5026194;28;20060;-77
2022/07/17 10:13:36;;;;;;;14.55;2.95;;;;;;;20.84;43.33;102723.09;5025202;28;20299;-76
2022/07/17 10:16:02;;;;;;;6.90;1.60;;;;;;;21.05;44.84;102713.13;5013974;28;20111;-76
2022/07/17 10:18:35;;;;;;;7.75;1.60;;;;;;;21.10;44.83;102718.75;5023008;28;20100;-76
2022/07/17 10:21:07;;;;;;;4.47;1.73;;;;;;;21.20;46.97;102714.25;5014875;28;20026;-78
2022/07/17 10:23:33;;;;;;;5.05;1.50;;;;;;;21.28;45.60;102710.06;5023501;28;20470;-78
2022/07/17 10:25:58;;;;;;;5.00;1.73;;;;;;;21.09;43.21;102711.00;5025753;28;20041;-78
2022/07/17 10:28:24;;;;;;;7.15;1.80;;;;;;;21.12;44.24;102695.69;5021305;28;20029;-78
2022/07/17 10:30:50;;;;;;;4.50;1.70;;;;;;;21.33;45.62;102706.00;5018106;28;20040;-77
2022/07/17 10:33:17;;;;;;;5.00;1.67;;;;;;;21.22;44.70;102706.22;5023482;28;20022;-80
2022/07/17 10:35:47;;;;;;;4.93;1.50;;;;;;;21.59;45.20;102714.00;5020804;28;20112;-79
2022/07/17 10:38:14;;;;;;;5.03;1.50;;;;;;;21.73;44.24;102705.56;5013900;28;20022;-78
2022/07/17 10:40:41;;;;;;;5.60;1.73;;;;;;;21.69;44.52;102704.19;5025409;28;20033;-77
2022/07/17 10:43:08;;;;;;;5.70;1.70;;;;;;;21.52;43.61;102710.31;5024197;28;20044;-79
2022/07/17 10:45:42;;;;;;;4.32;1.63;;;;;;;21.92;46.06;102714.28;5015645;28;20365;-80
2022/07/17 10:48:12;;;;;;;5.78;1.73;;;;;;;21.89;43.85;102715.41;5009392;28;20017;-77
2022/07/17 10:50:51;;;;;;;5.63;1.70;;;;;;;22.20;44.91;102707.06;5022771;28;20021;-76
2022/07/17 10:53:26;;;;;;;3.80;1.58;;;;;;;22.26;44.83;102723.13;5020294;28;20468;-77
2022/07/17 10:55:51;;;;;;;5.25;1.80;;;;;;;22.06;42.00;102716.34;5021368;28;20039;-77
2022/07/17 10:58:22;;;;;;;9.10;1.85;;;;;;;22.49;42.52;102718.13;5019584;28;20021;-77
2022/07/17 11:00:57;;;;;;;5.53;2.13;;;;;;;22.41;42.43;102710.13;5018591;28;20526;-79
2022/07/17 11:03:22;;;;;;;6.05;1.80;;;;;;;22.54;41.52;102715.03;5019654;28;20041;-78
2022/07/17 11:05:48;;;;;;;5.72;1.70;;;;;;;22.76;40.99;102722.38;5018759;28;20033;-78
2022/07/17 11:08:14;;;;;;;4.45;1.52;;;;;;;22.43;41.10;102712.66;5026976;28;20049;-76
2022/07/17 11:10:40;;;;;;;7.07;1.70;;;;;;;22.63;42.48;102724.63;5022966;28;20056;-77
2022/07/17 11:13:11;;;;;;;5.57;1.55;;;;;;;22.71;41.17;102727.34;5023039;28;20133;-78
2022/07/17 11:15:45;;;;;;;6.10;1.63;;;;;;;22.87;42.27;102720.44;5022318;28;20112;-77
2022/07/17 11:18:19;;;;;;;4.25;1.48;;;;;;;22.78;40.72;102703.72;5029383;28;20029;-78
2022/07/17 11:20:50;;;;;;;3.78;1.50;;;;;;;22.74;39.40;102710.31;5027324;28;20029;-78